sensor_id;sensor_type;location;lat;lon;timestamp;temperature;humidity
6244;DHT22;3155;49.940;8.450;2023-04-03T20:04:01;15.40;99.90
6244;DHT22;3155;49.940;8.450;2023-04-03T20:06:29;2.70;99.90
6244;DHT22;3155;49.940;8.450;2023-04-03T20:08:56;2.50;99.90
6244;DHT22;3155;49.940;8.450;2023-04-03T20:11:24;2.50;99.90
6244;DHT22;3155;49.940;8.450;2023-04-03T20:16:23;2.50;99.90
6244;DHT22;3155;49.940;8.450;2023-04-03T20:18:52;2.40;99.90
6244;DHT22;3155;49.940;8.450;2023-04-03T20:21:33;2.30;99.90
6244;DHT22;3155;49.940;8.450;2023-04-03T20:24:00;2.20;99.90
6244;DHT22;3155;49.940;8.450;2023-04-03T20:26:29;2.20;99.90
6244;DHT22;3155;49.940;8.450;2023-04-03T20:29:00;2.30;99.90
6244;DHT22;3155;49.940;8.450;2023-04-03T20:31:29;2.20;99.90
6244;DHT22;3155;49.940;8.450;2023-04-03T20:33:56;2.20;99.90
6244;DHT22;3155;49.940;8.450;2023-04-03T20:36:23;2.10;99.90
6244;DHT22;3155;49.940;8.450;2023-04-03T20:38:52;2.10;99.90
6244;DHT22;3155;49.940;8.450;2023-04-03T20:41:21;2.00;99.90
6244;DHT22;3155;49.940;8.450;2023-04-03T20:43:48;2.00;99.90
6244;DHT22;3155;49.940;8.450;2023-04-03T20:46:15;2.00;99.90
6244;DHT22;3155;49.940;8.450;2023-04-03T20:48:46;1.90;99.90
6244;DHT22;3155;49.940;8.450;2023-04-03T20:51:16;1.90;99.90
6244;DHT22;3155;49.940;8.450;2023-04-03T20:53:46;1.70;99.90
6244;DHT22;3155;49.940;8.450;2023-04-03T20:56:13;1.60;99.90
6244;DHT22;3155;49.940;8.450;2023-04-03T20:58:41;1.50;99.90
6244;DHT22;3155;49.940;8.450;2023-04-03T21:01:20;1.50;99.90
6244;DHT22;3155;49.940;8.450;2023-04-03T21:03:50;1.60;99.90
6244;DHT22;3155;49.940;8.450;2023-04-03T21:21:04;1.40;99.90
6244;DHT22;3155;49.940;8.450;2023-04-03T21:23:31;1.30;99.90
6244;DHT22;3155;49.940;8.450;2023-04-03T21:26:01;1.30;99.90
6244;DHT22;3155;49.940;8.450;2023-04-03T21:28:29;1.10;99.90
6244;DHT22;3155;49.940;8.450;2023-04-03T21:30:56;1.10;99.90
6244;DHT22;3155;49.940;8.450;2023-04-03T21:33:25;1.10;99.90
6244;DHT22;3155;49.940;8.450;2023-04-03T21:35:54;1.10;99.90
6244;DHT22;3155;49.940;8.450;2023-04-03T21:38:24;1.10;99.90
6244;DHT22;3155;49.940;8.450;2023-04-03T21:40:57;1.10;99.90
6244;DHT22;3155;49.940;8.450;2023-04-03T21:43:24;1.00;99.90
6244;DHT22;3155;49.940;8.450;2023-04-03T21:45:56;1.00;99.90
6244;DHT22;3155;49.940;8.450;2023-04-03T21:48:23;0.90;99.90
6244;DHT22;3155;49.940;8.450;2023-04-03T21:50:51;0.90;99.90
6244;DHT22;3155;49.940;8.450;2023-04-03T21:53:22;0.80;99.90
6244;DHT22;3155;49.940;8.450;2023-04-03T21:55:55;0.70;99.90
6244;DHT22;3155;49.940;8.450;2023-04-03T21:58:31;0.70;99.90
6244;DHT22;3155;49.940;8.450;2023-04-03T22:01:12;0.70;99.90
6244;DHT22;3155;49.940;8.450;2023-04-03T22:03:40;0.70;99.90
6244;DHT22;3155;49.940;8.450;2023-04-03T22:06:08;0.60;99.90
6244;DHT22;3155;49.940;8.450;2023-04-03T22:08:35;0.50;99.90
6244;DHT22;3155;49.940;8.450;2023-04-03T22:11:07;0.40;99.90
6244;DHT22;3155;49.940;8.450;2023-04-03T22:13:36;0.40;99.90
6244;DHT22;3155;49.940;8.450;2023-04-03T22:16:04;0.30;99.90
6244;DHT22;3155;49.940;8.450;2023-04-03T22:18:31;0.30;99.90
6244;DHT22;3155;49.940;8.450;2023-04-03T22:20:59;0.30;99.90
6244;DHT22;3155;49.940;8.450;2023-04-03T22:23:25;0.20;99.90
6244;DHT22;3155;49.940;8.450;2023-04-03T22:26:03;0.10;99.90
6244;DHT22;3155;49.940;8.450;2023-04-03T22:28:31;0.10;99.90
6244;DHT22;3155;49.940;8.450;2023-04-03T22:31:03;0.00;99.90
6244;DHT22;3155;49.940;8.450;2023-04-03T22:33:30;0.00;99.90
6244;DHT22;3155;49.940;8.450;2023-04-03T22:35:59;-0.10;99.90
6244;DHT22;3155;49.940;8.450;2023-04-03T22:38:26;0.00;99.90
6244;DHT22;3155;49.940;8.450;2023-04-03T22:41:01;-0.10;99.90
6244;DHT22;3155;49.940;8.450;2023-04-03T22:43:30;-0.10;99.90
6244;DHT22;3155;49.940;8.450;2023-04-03T22:46:01;-0.10;99.90
6244;DHT22;3155;49.940;8.450;2023-04-03T22:48:29;-0.10;99.90
6244;DHT22;3155;49.940;8.450;2023-04-03T22:50:56;-0.20;99.90
6244;DHT22;3155;49.940;8.450;2023-04-03T22:53:24;-0.20;99.90
6244;DHT22;3155;49.940;8.450;2023-04-03T22:55:55;-0.30;99.90
6244;DHT22;3155;49.940;8.450;2023-04-03T22:58:22;-0.20;99.90
6244;DHT22;3155;49.940;8.450;2023-04-03T23:01:02;-0.30;99.90
6244;DHT22;3155;49.940;8.450;2023-04-03T23:03:42;-0.30;99.90
6244;DHT22;3155;49.940;8.450;2023-04-03T23:06:09;-0.20;99.90
6244;DHT22;3155;49.940;8.450;2023-04-03T23:08:36;-0.30;99.90
6244;DHT22;3155;49.940;8.450;2023-04-03T23:11:04;-0.40;99.90
6244;DHT22;3155;49.940;8.450;2023-04-03T23:13:36;-0.40;99.90
6244;DHT22;3155;49.940;8.450;2023-04-03T23:16:17;-0.40;99.90
6244;DHT22;3155;49.940;8.450;2023-04-03T23:18:44;-0.40;99.90
6244;DHT22;3155;49.940;8.450;2023-04-03T23:21:10;-0.40;99.90
6244;DHT22;3155;49.940;8.450;2023-04-03T23:23:37;-0.40;99.90
6244;DHT22;3155;49.940;8.450;2023-04-03T23:26:04;-0.50;99.90
6244;DHT22;3155;49.940;8.450;2023-04-03T23:28:31;-0.50;99.90
6244;DHT22;3155;49.940;8.450;2023-04-03T23:31:02;-0.60;99.90
6244;DHT22;3155;49.940;8.450;2023-04-03T23:33:31;-0.50;99.90
6244;DHT22;3155;49.940;8.450;2023-04-03T23:36:06;-0.50;99.90
6244;DHT22;3155;49.940;8.450;2023-04-03T23:38:34;-0.60;99.90
6244;DHT22;3155;49.940;8.450;2023-04-03T23:41:04;-0.60;99.90
6244;DHT22;3155;49.940;8.450;2023-04-03T23:43:30;-0.60;99.90
6244;DHT22;3155;49.940;8.450;2023-04-03T23:46:01;-0.60;99.90
6244;DHT22;3155;49.940;8.450;2023-04-03T23:48:28;-0.60;99.90
6244;DHT22;3155;49.940;8.450;2023-04-03T23:50:55;-0.60;99.90
6244;DHT22;3155;49.940;8.450;2023-04-03T23:53:22;-0.60;99.90
6244;DHT22;3155;49.940;8.450;2023-04-03T23:55:51;-0.70;99.90
6244;DHT22;3155;49.940;8.450;2023-04-03T23:58:20;-0.70;99.90
